Aviation Digital Data Service (ADDS)

Output produced by METARs form (0614 UTC 31 August 2014)
found at http://aviationweather.gov/adds/metars/
 
KBTV 310537Z 3106/0106 18012G25KT P6SM BKN120 
     TEMPO 3110/3114 5SM -SHRA BKN040 
     FM311400 18012G24KT P6SM BKN040 
     FM311900 18012G24KT P6SM VCSH BKN035 
     FM010000 18010KT P6SM OVC030